Strona główna
METAR-TAF:

METAR-TAF

Lotnisko :

Port lotniczy Kraków-Balice

Kraków, Polska

Szerokość geograficzna: 50-05N, Długość geograficzna: 019-48E, wysokość: 237 m

Aktualna obserwacja pogody

Raport powstał 22 minut temu, godzina 09:00 UTC
Wiatr 11 kt od wschodnio-północny wschód
Temperatura -4°C
Wilgotność 86%
Ciśnienie 1005 hPa
Widzialność: 7000 m
Przerywane chmury na wysokości 800 ft

METAR: EPKK 230900Z 07011KT 7000 BKN008 M04/M06 Q1005

czas: 10:22 (09:22 UTC)

Prognoza

Raport powstał 52 minut temu, godzina 08:30 UTC
Prognoza ważna od 23 godzina 09 UTC do 24 godzina 09 UTC
Wiatr 10 kt od wschodnio-północny wschód
Widzialność: 7000 m
Przerywane chmury na wysokości 700 ft
Przejściowo
od 23 godzina 09 UTC do 24 godzina 09 UTC
Widzialność: 4000 m
Przerywane chmury na wysokości 1200 ft
słaby śnieg, zamglenie

TAF: EPKK 230830Z 2309/2409 07010KT 7000 BKN007 TEMPO 2309/2409 4000 -SN BR BKN012

Obserwacja i prognoza pogody dla ponad 4000 lotnisk (raport METAR i TAF).

Dostępne stacje oznaczono żółtymi i czerwonymi punktami na mapie.

Najedź kursorem aby zobaczyć nazwę stacji.

Kliknij aby zobaczyć obserwacje i prognozy pogody.

Aby zmienić mapę: kliknij na zielony przycisk z czarnym krzyżykiem, aby powiększyć; na zielony przycisk z myślnikiem, aby pomniejszyć; na zielone strzałki, aby przejść do map sąsiednich.


METAR-TAF: